sensor_id;sensor_type;location;lat;lon;timestamp;temperature;humidity
2100;DHT22;1055;48.854;9.302;2022-09-30T00:01:32;9.00;99.90
2100;DHT22;1055;48.854;9.302;2022-09-30T00:03:59;9.20;99.90
2100;DHT22;1055;48.854;9.302;2022-09-30T00:06:26;9.40;99.90
2100;DHT22;1055;48.854;9.302;2022-09-30T00:08:52;9.10;99.90
2100;DHT22;1055;48.854;9.302;2022-09-30T00:11:24;9.40;99.90
2100;DHT22;1055;48.854;9.302;2022-09-30T00:13:51;9.40;99.90
2100;DHT22;1055;48.854;9.302;2022-09-30T00:16:18;9.60;99.90
2100;DHT22;1055;48.854;9.302;2022-09-30T00:18:45;9.60;99.90
2100;DHT22;1055;48.854;9.302;2022-09-30T00:21:12;9.60;99.90
2100;DHT22;1055;48.854;9.302;2022-09-30T00:23:40;9.70;99.90
2100;DHT22;1055;48.854;9.302;2022-09-30T00:26:09;9.70;99.90
2100;DHT22;1055;48.854;9.302;2022-09-30T00:28:37;9.60;99.90
2100;DHT22;1055;48.854;9.302;2022-09-30T00:31:06;9.50;99.90
2100;DHT22;1055;48.854;9.302;2022-09-30T00:33:33;9.60;99.90
2100;DHT22;1055;48.854;9.302;2022-09-30T00:35:59;9.70;99.90
2100;DHT22;1055;48.854;9.302;2022-09-30T00:38:25;9.80;99.90
2100;DHT22;1055;48.854;9.302;2022-09-30T00:40:51;9.90;99.90
2100;DHT22;1055;48.854;9.302;2022-09-30T00:46:03;9.50;99.90
2100;DHT22;1055;48.854;9.302;2022-09-30T00:48:34;9.70;99.90
2100;DHT22;1055;48.854;9.302;2022-09-30T00:51:03;9.70;99.90
2100;DHT22;1055;48.854;9.302;2022-09-30T00:53:46;9.80;99.90
2100;DHT22;1055;48.854;9.302;2022-09-30T00:56:20;9.80;99.90
2100;DHT22;1055;48.854;9.302;2022-09-30T01:01:21;9.40;99.90
2100;DHT22;1055;48.854;9.302;2022-09-30T01:03:57;9.70;99.90
2100;DHT22;1055;48.854;9.302;2022-09-30T01:06:24;9.70;99.90
2100;DHT22;1055;48.854;9.302;2022-09-30T01:08:50;8.90;99.90
2100;DHT22;1055;48.854;9.302;2022-09-30T01:11:16;8.70;99.90
2100;DHT22;1055;48.854;9.302;2022-09-30T01:13:44;8.60;99.90
2100;DHT22;1055;48.854;9.302;2022-09-30T01:22:14;8.10;99.90
2100;DHT22;1055;48.854;9.302;2022-09-30T01:30:52;7.70;99.90
2100;DHT22;1055;48.854;9.302;2022-09-30T01:38:48;8.00;99.90
2100;DHT22;1055;48.854;9.302;2022-09-30T01:42:08;8.20;99.90
2100;DHT22;1055;48.854;9.302;2022-09-30T01:44:36;8.40;99.90
2100;DHT22;1055;48.854;9.302;2022-09-30T01:47:24;8.50;99.90
2100;DHT22;1055;48.854;9.302;2022-09-30T01:50:15;8.70;99.90
2100;DHT22;1055;48.854;9.302;2022-09-30T01:55:49;8.90;99.90
2100;DHT22;1055;48.854;9.302;2022-09-30T01:58:23;8.90;99.90
2100;DHT22;1055;48.854;9.302;2022-09-30T02:00:57;8.60;99.90
2100;DHT22;1055;48.854;9.302;2022-09-30T02:03:35;8.90;99.90
2100;DHT22;1055;48.854;9.302;2022-09-30T02:06:05;9.10;99.90
2100;DHT22;1055;48.854;9.302;2022-09-30T02:08:50;8.90;99.90
2100;DHT22;1055;48.854;9.302;2022-09-30T02:11:26;9.00;99.90
2100;DHT22;1055;48.854;9.302;2022-09-30T02:14:01;8.90;99.90
2100;DHT22;1055;48.854;9.302;2022-09-30T02:16:33;9.00;99.90
2100;DHT22;1055;48.854;9.302;2022-09-30T02:21:45;8.10;99.90
2100;DHT22;1055;48.854;9.302;2022-09-30T02:24:15;8.00;99.90
2100;DHT22;1055;48.854;9.302;2022-09-30T02:26:44;8.00;99.90
2100;DHT22;1055;48.854;9.302;2022-09-30T02:29:22;8.00;99.90
2100;DHT22;1055;48.854;9.302;2022-09-30T02:31:52;8.00;99.90
2100;DHT22;1055;48.854;9.302;2022-09-30T02:34:31;7.90;99.90
2100;DHT22;1055;48.854;9.302;2022-09-30T02:37:06;8.20;99.90
2100;DHT22;1055;48.854;9.302;2022-09-30T02:42:20;8.70;99.90
2100;DHT22;1055;48.854;9.302;2022-09-30T02:44:50;8.90;99.90
2100;DHT22;1055;48.854;9.302;2022-09-30T02:53:25;9.20;99.90
2100;DHT22;1055;48.854;9.302;2022-09-30T02:58:43;9.40;99.90
2100;DHT22;1055;48.854;9.302;2022-09-30T03:01:12;9.40;99.90
2100;DHT22;1055;48.854;9.302;2022-09-30T03:06:13;9.40;99.90
2100;DHT22;1055;48.854;9.302;2022-09-30T03:08:39;9.50;99.90
2100;DHT22;1055;48.854;9.302;2022-09-30T03:11:05;9.50;99.90
2100;DHT22;1055;48.854;9.302;2022-09-30T03:22:05;9.20;99.90
2100;DHT22;1055;48.854;9.302;2022-09-30T03:27:30;9.30;99.90
2100;DHT22;1055;48.854;9.302;2022-09-30T03:30:04;9.40;99.90
2100;DHT22;1055;48.854;9.302;2022-09-30T03:35:04;9.60;99.90
2100;DHT22;1055;48.854;9.302;2022-09-30T03:37:52;9.70;99.90
2100;DHT22;1055;48.854;9.302;2022-09-30T03:40:34;9.80;99.90
2100;DHT22;1055;48.854;9.302;2022-09-30T03:43:11;9.90;99.90
2100;DHT22;1055;48.854;9.302;2022-09-30T03:45:49;9.90;99.90
2100;DHT22;1055;48.854;9.302;2022-09-30T03:48:17;9.90;99.90
2100;DHT22;1055;48.854;9.302;2022-09-30T03:50:44;10.00;99.90
2100;DHT22;1055;48.854;9.302;2022-09-30T03:53:11;9.80;99.90
2100;DHT22;1055;48.854;9.302;2022-09-30T03:55:48;9.20;99.90
2100;DHT22;1055;48.854;9.302;2022-09-30T03:58:18;9.40;99.90
2100;DHT22;1055;48.854;9.302;2022-09-30T04:00:51;9.50;99.90
2100;DHT22;1055;48.854;9.302;2022-09-30T04:03:18;9.60;99.90
2100;DHT22;1055;48.854;9.302;2022-09-30T04:05:44;9.50;99.90
2100;DHT22;1055;48.854;9.302;2022-09-30T04:08:10;9.40;99.90
2100;DHT22;1055;48.854;9.302;2022-09-30T04:10:38;8.90;99.90
2100;DHT22;1055;48.854;9.302;2022-09-30T04:13:04;8.00;99.90
2100;DHT22;1055;48.854;9.302;2022-09-30T04:15:30;7.50;99.90
2100;DHT22;1055;48.854;9.302;2022-09-30T04:17:56;7.40;99.90
2100;DHT22;1055;48.854;9.302;2022-09-30T04:20:22;7.70;99.90
2100;DHT22;1055;48.854;9.302;2022-09-30T04:22:48;8.00;99.90
2100;DHT22;1055;48.854;9.302;2022-09-30T04:25:13;7.60;99.90
2100;DHT22;1055;48.854;9.302;2022-09-30T04:27:39;7.50;99.90
2100;DHT22;1055;48.854;9.302;2022-09-30T04:30:05;7.20;99.90
2100;DHT22;1055;48.854;9.302;2022-09-30T04:32:30;7.20;99.90
2100;DHT22;1055;48.854;9.302;2022-09-30T04:34:56;7.50;99.90
2100;DHT22;1055;48.854;9.302;2022-09-30T04:37:22;7.50;99.90
2100;DHT22;1055;48.854;9.302;2022-09-30T04:39:49;7.50;99.90
2100;DHT22;1055;48.854;9.302;2022-09-30T04:42:14;7.50;99.90
2100;DHT22;1055;48.854;9.302;2022-09-30T04:44:41;7.40;99.90
2100;DHT22;1055;48.854;9.302;2022-09-30T04:47:07;7.30;99.90
2100;DHT22;1055;48.854;9.302;2022-09-30T04:49:33;7.00;99.90
2100;DHT22;1055;48.854;9.302;2022-09-30T04:51:59;7.10;99.90
2100;DHT22;1055;48.854;9.302;2022-09-30T04:54:24;7.10;99.90
2100;DHT22;1055;48.854;9.302;2022-09-30T04:56:50;7.40;99.90
2100;DHT22;1055;48.854;9.302;2022-09-30T04:59:15;7.20;99.90
2100;DHT22;1055;48.854;9.302;2022-09-30T05:01:41;6.80;99.90
2100;DHT22;1055;48.854;9.302;2022-09-30T05:04:09;6.70;99.90
2100;DHT22;1055;48.854;9.302;2022-09-30T05:06:37;6.50;99.90
2100;DHT22;1055;48.854;9.302;2022-09-30T05:09:05;6.50;99.90
2100;DHT22;1055;48.854;9.302;2022-09-30T05:11:31;6.60;99.90
2100;DHT22;1055;48.854;9.302;2022-09-30T05:13:57;6.90;99.90
2100;DHT22;1055;48.854;9.302;2022-09-30T05:16:23;6.80;99.90
2100;DHT22;1055;48.854;9.302;2022-09-30T05:18:48;7.00;99.90
2100;DHT22;1055;48.854;9.302;2022-09-30T05:21:16;7.00;99.90
2100;DHT22;1055;48.854;9.302;2022-09-30T05:23:42;7.20;99.90
2100;DHT22;1055;48.854;9.302;2022-09-30T05:26:08;7.30;99.90
2100;DHT22;1055;48.854;9.302;2022-09-30T05:28:33;7.50;99.90
2100;DHT22;1055;48.854;9.302;2022-09-30T05:31:01;7.60;99.90
2100;DHT22;1055;48.854;9.302;2022-09-30T05:33:27;7.60;99.90
2100;DHT22;1055;48.854;9.302;2022-09-30T05:35:54;7.20;99.90
2100;DHT22;1055;48.854;9.302;2022-09-30T05:38:20;6.50;99.90
2100;DHT22;1055;48.854;9.302;2022-09-30T05:40:46;6.20;99.90
2100;DHT22;1055;48.854;9.302;2022-09-30T05:43:11;5.90;99.90
2100;DHT22;1055;48.854;9.302;2022-09-30T05:45:37;6.00;99.90
2100;DHT22;1055;48.854;9.302;2022-09-30T05:48:03;6.10;99.90
2100;DHT22;1055;48.854;9.302;2022-09-30T05:50:29;6.00;99.90
2100;DHT22;1055;48.854;9.302;2022-09-30T05:52:55;6.00;99.90
2100;DHT22;1055;48.854;9.302;2022-09-30T05:55:21;6.20;99.90
2100;DHT22;1055;48.854;9.302;2022-09-30T05:57:49;6.30;99.90
2100;DHT22;1055;48.854;9.302;2022-09-30T06:00:16;6.50;99.90
2100;DHT22;1055;48.854;9.302;2022-09-30T06:02:41;6.80;99.90
2100;DHT22;1055;48.854;9.302;2022-09-30T06:05:08;6.50;99.90
2100;DHT22;1055;48.854;9.302;2022-09-30T06:07:34;6.50;99.90
2100;DHT22;1055;48.854;9.302;2022-09-30T06:10:01;6.70;99.90
2100;DHT22;1055;48.854;9.302;2022-09-30T06:12:27;7.00;99.90
2100;DHT22;1055;48.854;9.302;2022-09-30T06:14:54;7.20;99.90
2100;DHT22;1055;48.854;9.302;2022-09-30T06:17:20;6.90;99.90
2100;DHT22;1055;48.854;9.302;2022-09-30T06:19:46;7.10;99.90
2100;DHT22;1055;48.854;9.302;2022-09-30T06:22:12;7.30;99.90
2100;DHT22;1055;48.854;9.302;2022-09-30T06:24:38;7.00;99.90
2100;DHT22;1055;48.854;9.302;2022-09-30T06:27:03;6.70;99.90
2100;DHT22;1055;48.854;9.302;2022-09-30T06:29:29;7.00;99.90
2100;DHT22;1055;48.854;9.302;2022-09-30T06:31:54;7.10;99.90
2100;DHT22;1055;48.854;9.302;2022-09-30T06:34:20;7.10;99.90
2100;DHT22;1055;48.854;9.302;2022-09-30T06:36:45;7.10;99.90
2100;DHT22;1055;48.854;9.302;2022-09-30T06:39:11;6.90;99.90
2100;DHT22;1055;48.854;9.302;2022-09-30T06:41:37;7.20;99.90
2100;DHT22;1055;48.854;9.302;2022-09-30T06:44:04;7.10;99.90
2100;DHT22;1055;48.854;9.302;2022-09-30T06:46:30;7.10;99.90
2100;DHT22;1055;48.854;9.302;2022-09-30T06:48:56;6.80;99.90
2100;DHT22;1055;48.854;9.302;2022-09-30T06:51:23;7.00;99.90
2100;DHT22;1055;48.854;9.302;2022-09-30T06:53:53;7.20;99.90
2100;DHT22;1055;48.854;9.302;2022-09-30T06:56:20;7.50;99.90
2100;DHT22;1055;48.854;9.302;2022-09-30T06:58:45;7.50;99.90
2100;DHT22;1055;48.854;9.302;2022-09-30T07:01:12;7.20;99.90
2100;DHT22;1055;48.854;9.302;2022-09-30T07:03:43;7.10;99.90
2100;DHT22;1055;48.854;9.302;2022-09-30T07:06:12;7.00;99.90
2100;DHT22;1055;48.854;9.302;2022-09-30T07:08:38;7.10;99.90
2100;DHT22;1055;48.854;9.302;2022-09-30T07:11:06;7.20;99.90
2100;DHT22;1055;48.854;9.302;2022-09-30T07:13:50;7.20;99.90
2100;DHT22;1055;48.854;9.302;2022-09-30T07:16:18;7.00;99.90
2100;DHT22;1055;48.854;9.302;2022-09-30T07:18:44;7.40;99.90
2100;DHT22;1055;48.854;9.302;2022-09-30T07:21:11;7.50;99.90
2100;DHT22;1055;48.854;9.302;2022-09-30T07:23:38;7.60;99.90
2100;DHT22;1055;48.854;9.302;2022-09-30T07:26:10;7.80;99.90
2100;DHT22;1055;48.854;9.302;2022-09-30T07:28:36;7.60;99.90
2100;DHT22;1055;48.854;9.302;2022-09-30T07:31:15;7.80;99.90
2100;DHT22;1055;48.854;9.302;2022-09-30T07:33:42;8.00;99.90
2100;DHT22;1055;48.854;9.302;2022-09-30T07:36:09;7.50;99.90
2100;DHT22;1055;48.854;9.302;2022-09-30T07:38:38;7.70;99.90
2100;DHT22;1055;48.854;9.302;2022-09-30T07:41:14;8.00;99.90
2100;DHT22;1055;48.854;9.302;2022-09-30T07:43:43;8.20;99.90
2100;DHT22;1055;48.854;9.302;2022-09-30T07:46:20;8.40;99.90
2100;DHT22;1055;48.854;9.302;2022-09-30T07:48:49;8.70;99.90
2100;DHT22;1055;48.854;9.302;2022-09-30T07:51:19;8.50;99.90
2100;DHT22;1055;48.854;9.302;2022-09-30T07:53:51;9.00;99.90
2100;DHT22;1055;48.854;9.302;2022-09-30T07:56:17;9.30;99.90
2100;DHT22;1055;48.854;9.302;2022-09-30T07:58:44;9.50;99.90
2100;DHT22;1055;48.854;9.302;2022-09-30T08:01:10;9.10;99.90
2100;DHT22;1055;48.854;9.302;2022-09-30T08:03:38;9.10;99.90
2100;DHT22;1055;48.854;9.302;2022-09-30T08:06:10;9.30;99.90
2100;DHT22;1055;48.854;9.302;2022-09-30T08:08:36;8.80;99.90
2100;DHT22;1055;48.854;9.302;2022-09-30T08:11:03;8.90;99.90
2100;DHT22;1055;48.854;9.302;2022-09-30T08:13:30;8.80;99.90
2100;DHT22;1055;48.854;9.302;2022-09-30T08:15:55;8.80;99.90
2100;DHT22;1055;48.854;9.302;2022-09-30T08:18:22;9.20;99.90
2100;DHT22;1055;48.854;9.302;2022-09-30T08:20:47;9.20;99.90
2100;DHT22;1055;48.854;9.302;2022-09-30T08:23:13;9.20;99.90
2100;DHT22;1055;48.854;9.302;2022-09-30T08:25:39;9.40;99.90
2100;DHT22;1055;48.854;9.302;2022-09-30T08:28:04;9.80;99.90
2100;DHT22;1055;48.854;9.302;2022-09-30T08:30:30;10.20;99.90
2100;DHT22;1055;48.854;9.302;2022-09-30T08:32:56;10.50;99.90
2100;DHT22;1055;48.854;9.302;2022-09-30T08:35:22;10.70;99.90
2100;DHT22;1055;48.854;9.302;2022-09-30T08:37:48;10.80;99.90
2100;DHT22;1055;48.854;9.302;2022-09-30T08:40:25;11.10;99.90
2100;DHT22;1055;48.854;9.302;2022-09-30T08:43:20;11.00;99.90
2100;DHT22;1055;48.854;9.302;2022-09-30T08:48:51;11.20;99.90
2100;DHT22;1055;48.854;9.302;2022-09-30T08:51:40;11.20;99.90
2100;DHT22;1055;48.854;9.302;2022-09-30T08:54:17;11.30;99.90
2100;DHT22;1055;48.854;9.302;2022-09-30T08:56:44;11.00;99.90
2100;DHT22;1055;48.854;9.302;2022-09-30T09:01:43;11.20;99.90
2100;DHT22;1055;48.854;9.302;2022-09-30T09:04:11;11.20;99.90
2100;DHT22;1055;48.854;9.302;2022-09-30T09:06:41;11.30;99.90
2100;DHT22;1055;48.854;9.302;2022-09-30T09:09:47;11.20;99.90
2100;DHT22;1055;48.854;9.302;2022-09-30T09:12:27;11.20;99.90
2100;DHT22;1055;48.854;9.302;2022-09-30T09:17:43;11.40;99.90
2100;DHT22;1055;48.854;9.302;2022-09-30T09:22:41;11.60;99.90
2100;DHT22;1055;48.854;9.302;2022-09-30T09:25:12;11.70;99.90
2100;DHT22;1055;48.854;9.302;2022-09-30T09:27:54;11.60;99.90
2100;DHT22;1055;48.854;9.302;2022-09-30T09:30:22;11.70;99.90
2100;DHT22;1055;48.854;9.302;2022-09-30T09:32:52;11.70;99.90
2100;DHT22;1055;48.854;9.302;2022-09-30T09:35:38;11.50;99.90
2100;DHT22;1055;48.854;9.302;2022-09-30T09:38:23;11.70;99.90
2100;DHT22;1055;48.854;9.302;2022-09-30T09:41:22;11.80;99.90
2100;DHT22;1055;48.854;9.302;2022-09-30T09:54:36;12.20;99.90
2100;DHT22;1055;48.854;9.302;2022-09-30T09:57:06;12.30;99.90
2100;DHT22;1055;48.854;9.302;2022-09-30T09:59:35;12.20;99.90
2100;DHT22;1055;48.854;9.302;2022-09-30T10:02:01;12.50;99.90
2100;DHT22;1055;48.854;9.302;2022-09-30T10:04:29;12.60;99.90
2100;DHT22;1055;48.854;9.302;2022-09-30T10:07:01;12.60;99.90
2100;DHT22;1055;48.854;9.302;2022-09-30T10:09:42;12.50;99.90
2100;DHT22;1055;48.854;9.302;2022-09-30T10:14:38;13.00;99.90
2100;DHT22;1055;48.854;9.302;2022-09-30T10:17:18;13.10;99.90
2100;DHT22;1055;48.854;9.302;2022-09-30T10:19:49;13.00;99.90
2100;DHT22;1055;48.854;9.302;2022-09-30T10:24:42;13.10;99.90
2100;DHT22;1055;48.854;9.302;2022-09-30T10:27:28;13.20;99.90
2100;DHT22;1055;48.854;9.302;2022-09-30T10:29:54;13.20;99.90
2100;DHT22;1055;48.854;9.302;2022-09-30T10:32:19;13.30;99.90
2100;DHT22;1055;48.854;9.302;2022-09-30T10:35:46;13.50;99.90
2100;DHT22;1055;48.854;9.302;2022-09-30T10:37:37;13.60;99.90
2100;DHT22;1055;48.854;9.302;2022-09-30T10:40:05;13.40;99.90
2100;DHT22;1055;48.854;9.302;2022-09-30T10:42:35;13.60;99.90
2100;DHT22;1055;48.854;9.302;2022-09-30T10:45:05;13.70;99.90
2100;DHT22;1055;48.854;9.302;2022-09-30T10:47:32;14.00;99.90
2100;DHT22;1055;48.854;9.302;2022-09-30T10:50:09;14.00;99.90
2100;DHT22;1055;48.854;9.302;2022-09-30T10:53:10;14.20;99.90
2100;DHT22;1055;48.854;9.302;2022-09-30T10:55:42;14.20;99.90
2100;DHT22;1055;48.854;9.302;2022-09-30T10:58:47;13.90;99.90
2100;DHT22;1055;48.854;9.302;2022-09-30T11:01:24;14.00;99.90
2100;DHT22;1055;48.854;9.302;2022-09-30T11:04:02;14.20;99.90
2100;DHT22;1055;48.854;9.302;2022-09-30T11:06:37;14.20;99.90
2100;DHT22;1055;48.854;9.302;2022-09-30T11:09:10;14.40;99.90
2100;DHT22;1055;48.854;9.302;2022-09-30T11:11:42;14.70;99.90
2100;DHT22;1055;48.854;9.302;2022-09-30T11:14:28;14.80;99.90
2100;DHT22;1055;48.854;9.302;2022-09-30T11:17:04;14.90;99.90
2100;DHT22;1055;48.854;9.302;2022-09-30T11:19:55;15.00;99.90
2100;DHT22;1055;48.854;9.302;2022-09-30T11:22:48;15.00;99.90
2100;DHT22;1055;48.854;9.302;2022-09-30T11:25:25;15.10;99.90
2100;DHT22;1055;48.854;9.302;2022-09-30T11:30:55;15.10;99.90
2100;DHT22;1055;48.854;9.302;2022-09-30T11:39:53;15.30;99.90
2100;DHT22;1055;48.854;9.302;2022-09-30T11:42:52;15.50;99.90
2100;DHT22;1055;48.854;9.302;2022-09-30T11:51:22;15.40;99.90
2100;DHT22;1055;48.854;9.302;2022-09-30T11:57:05;15.50;99.90
2100;DHT22;1055;48.854;9.302;2022-09-30T11:59:45;15.70;99.90
2100;DHT22;1055;48.854;9.302;2022-09-30T12:04:47;15.90;99.90
2100;DHT22;1055;48.854;9.302;2022-09-30T12:07:18;16.10;99.90
2100;DHT22;1055;48.854;9.302;2022-09-30T12:09:46;16.40;99.90
2100;DHT22;1055;48.854;9.302;2022-09-30T12:12:15;16.10;99.90
2100;DHT22;1055;48.854;9.302;2022-09-30T12:15:00;16.30;99.90
2100;DHT22;1055;48.854;9.302;2022-09-30T12:17:36;16.40;99.00
2100;DHT22;1055;48.854;9.302;2022-09-30T12:23:01;16.30;93.40
2100;DHT22;1055;48.854;9.302;2022-09-30T12:25:38;16.10;93.30
2100;DHT22;1055;48.854;9.302;2022-09-30T12:28:19;16.30;95.10
2100;DHT22;1055;48.854;9.302;2022-09-30T12:31:28;16.40;94.50
2100;DHT22;1055;48.854;9.302;2022-09-30T12:37:00;17.30;91.70
2100;DHT22;1055;48.854;9.302;2022-09-30T12:44:47;17.80;90.10
2100;DHT22;1055;48.854;9.302;2022-09-30T12:49:52;18.00;90.80
2100;DHT22;1055;48.854;9.302;2022-09-30T12:52:20;17.80;90.20
2100;DHT22;1055;48.854;9.302;2022-09-30T12:54:54;17.90;89.00
2100;DHT22;1055;48.854;9.302;2022-09-30T12:57:30;17.20;91.10
2100;DHT22;1055;48.854;9.302;2022-09-30T13:00:03;16.70;91.20
2100;DHT22;1055;48.854;9.302;2022-09-30T13:02:36;16.70;92.70
2100;DHT22;1055;48.854;9.302;2022-09-30T13:13:25;16.60;91.60
2100;DHT22;1055;48.854;9.302;2022-09-30T13:15:54;16.90;91.30
2100;DHT22;1055;48.854;9.302;2022-09-30T13:23:56;16.60;90.90
2100;DHT22;1055;48.854;9.302;2022-09-30T13:28:53;17.30;92.70
2100;DHT22;1055;48.854;9.302;2022-09-30T13:31:23;17.70;91.20
2100;DHT22;1055;48.854;9.302;2022-09-30T13:41:59;19.00;83.60
2100;DHT22;1055;48.854;9.302;2022-09-30T13:50:15;19.70;81.10
2100;DHT22;1055;48.854;9.302;2022-09-30T13:52:51;18.90;80.90
2100;DHT22;1055;48.854;9.302;2022-09-30T13:55:26;19.20;81.60
2100;DHT22;1055;48.854;9.302;2022-09-30T14:23:40;19.70;78.80
2100;DHT22;1055;48.854;9.302;2022-09-30T14:26:13;19.20;78.80
2100;DHT22;1055;48.854;9.302;2022-09-30T14:29:33;19.00;78.80
2100;DHT22;1055;48.854;9.302;2022-09-30T14:31:46;19.20;80.80
2100;DHT22;1055;48.854;9.302;2022-09-30T14:34:13;19.00;80.30
2100;DHT22;1055;48.854;9.302;2022-09-30T14:36:40;18.70;80.50
2100;DHT22;1055;48.854;9.302;2022-09-30T14:39:17;18.90;82.10
2100;DHT22;1055;48.854;9.302;2022-09-30T14:41:50;18.80;84.10
2100;DHT22;1055;48.854;9.302;2022-09-30T14:44:17;18.70;84.90
2100;DHT22;1055;48.854;9.302;2022-09-30T14:46:45;18.50;84.00
2100;DHT22;1055;48.854;9.302;2022-09-30T14:49:15;18.40;84.80
2100;DHT22;1055;48.854;9.302;2022-09-30T14:51:44;18.20;84.70
2100;DHT22;1055;48.854;9.302;2022-09-30T14:54:21;18.10;85.60
2100;DHT22;1055;48.854;9.302;2022-09-30T14:56:48;18.00;86.10
2100;DHT22;1055;48.854;9.302;2022-09-30T15:01:59;18.10;86.50
2100;DHT22;1055;48.854;9.302;2022-09-30T15:04:37;18.00;84.20
2100;DHT22;1055;48.854;9.302;2022-09-30T15:07:07;17.90;82.70
2100;DHT22;1055;48.854;9.302;2022-09-30T15:09:36;18.00;84.30
2100;DHT22;1055;48.854;9.302;2022-09-30T15:12:19;18.10;83.90
2100;DHT22;1055;48.854;9.302;2022-09-30T15:14:57;18.30;83.60
2100;DHT22;1055;48.854;9.302;2022-09-30T15:17:28;17.30;81.80
2100;DHT22;1055;48.854;9.302;2022-09-30T15:19:55;17.70;84.30
2100;DHT22;1055;48.854;9.302;2022-09-30T15:22:26;18.10;85.50
2100;DHT22;1055;48.854;9.302;2022-09-30T15:24:53;18.80;84.40
2100;DHT22;1055;48.854;9.302;2022-09-30T15:27:24;18.70;81.60
2100;DHT22;1055;48.854;9.302;2022-09-30T15:32:43;19.90;79.00
2100;DHT22;1055;48.854;9.302;2022-09-30T15:35:15;19.70;77.10
2100;DHT22;1055;48.854;9.302;2022-09-30T15:37:43;20.00;77.70
2100;DHT22;1055;48.854;9.302;2022-09-30T15:40:15;20.30;76.60
2100;DHT22;1055;48.854;9.302;2022-09-30T15:43:01;20.60;76.20
2100;DHT22;1055;48.854;9.302;2022-09-30T15:45:32;21.00;75.30
2100;DHT22;1055;48.854;9.302;2022-09-30T15:55:50;21.50;72.10
2100;DHT22;1055;48.854;9.302;2022-09-30T16:01:17;22.00;71.60
2100;DHT22;1055;48.854;9.302;2022-09-30T16:03:59;22.10;70.60
2100;DHT22;1055;48.854;9.302;2022-09-30T16:06:46;22.30;70.40
2100;DHT22;1055;48.854;9.302;2022-09-30T16:17:32;22.70;70.20
2100;DHT22;1055;48.854;9.302;2022-09-30T16:20:01;22.20;69.20
2100;DHT22;1055;48.854;9.302;2022-09-30T16:27:46;21.80;71.20
2100;DHT22;1055;48.854;9.302;2022-09-30T16:30:14;21.90;71.40
2100;DHT22;1055;48.854;9.302;2022-09-30T16:32:42;21.70;71.70
2100;DHT22;1055;48.854;9.302;2022-09-30T16:35:20;21.70;72.20
2100;DHT22;1055;48.854;9.302;2022-09-30T16:37:47;21.60;72.40
2100;DHT22;1055;48.854;9.302;2022-09-30T16:40:24;21.30;73.00
2100;DHT22;1055;48.854;9.302;2022-09-30T16:42:50;21.10;73.60
2100;DHT22;1055;48.854;9.302;2022-09-30T16:45:16;21.00;73.70
2100;DHT22;1055;48.854;9.302;2022-09-30T16:47:43;20.70;73.90
2100;DHT22;1055;48.854;9.302;2022-09-30T16:50:37;20.50;75.20
2100;DHT22;1055;48.854;9.302;2022-09-30T16:53:03;20.40;76.10
2100;DHT22;1055;48.854;9.302;2022-09-30T16:55:28;20.20;77.50
2100;DHT22;1055;48.854;9.302;2022-09-30T16:57:55;20.00;78.60
2100;DHT22;1055;48.854;9.302;2022-09-30T17:00:22;19.80;79.70
2100;DHT22;1055;48.854;9.302;2022-09-30T17:02:48;19.60;80.90
2100;DHT22;1055;48.854;9.302;2022-09-30T17:05:24;19.40;83.00
2100;DHT22;1055;48.854;9.302;2022-09-30T17:07:52;19.20;84.70
2100;DHT22;1055;48.854;9.302;2022-09-30T17:10:26;19.10;84.90
2100;DHT22;1055;48.854;9.302;2022-09-30T17:12:54;18.90;85.70
2100;DHT22;1055;48.854;9.302;2022-09-30T17:15:20;18.50;87.00
2100;DHT22;1055;48.854;9.302;2022-09-30T17:17:47;18.20;87.90
2100;DHT22;1055;48.854;9.302;2022-09-30T17:20:13;18.10;88.40
2100;DHT22;1055;48.854;9.302;2022-09-30T17:22:39;18.10;88.60
2100;DHT22;1055;48.854;9.302;2022-09-30T17:25:06;18.00;90.50
2100;DHT22;1055;48.854;9.302;2022-09-30T17:27:32;17.90;91.10
2100;DHT22;1055;48.854;9.302;2022-09-30T17:29:57;17.80;99.90
2100;DHT22;1055;48.854;9.302;2022-09-30T17:32:25;17.40;99.90
2100;DHT22;1055;48.854;9.302;2022-09-30T17:34:51;17.20;99.90
2100;DHT22;1055;48.854;9.302;2022-09-30T17:37:17;17.10;99.90
2100;DHT22;1055;48.854;9.302;2022-09-30T17:39:43;16.90;99.90
2100;DHT22;1055;48.854;9.302;2022-09-30T17:42:15;16.50;99.90
2100;DHT22;1055;48.854;9.302;2022-09-30T17:44:59;15.60;99.90
2100;DHT22;1055;48.854;9.302;2022-09-30T17:47:25;15.30;99.90
2100;DHT22;1055;48.854;9.302;2022-09-30T17:49:52;14.30;99.90
2100;DHT22;1055;48.854;9.302;2022-09-30T17:52:18;13.70;99.90
2100;DHT22;1055;48.854;9.302;2022-09-30T17:54:44;13.50;99.90
2100;DHT22;1055;48.854;9.302;2022-09-30T17:57:09;13.30;99.90
2100;DHT22;1055;48.854;9.302;2022-09-30T17:59:35;13.40;99.90
2100;DHT22;1055;48.854;9.302;2022-09-30T18:02:01;13.20;99.90
2100;DHT22;1055;48.854;9.302;2022-09-30T18:04:26;13.20;99.90
2100;DHT22;1055;48.854;9.302;2022-09-30T18:06:53;13.20;99.90
2100;DHT22;1055;48.854;9.302;2022-09-30T18:09:20;13.20;99.90
2100;DHT22;1055;48.854;9.302;2022-09-30T18:11:46;13.10;99.90
2100;DHT22;1055;48.854;9.302;2022-09-30T18:14:11;12.80;99.90
2100;DHT22;1055;48.854;9.302;2022-09-30T18:16:37;12.80;99.90
2100;DHT22;1055;48.854;9.302;2022-09-30T18:19:04;12.60;99.90
2100;DHT22;1055;48.854;9.302;2022-09-30T18:21:31;12.60;99.90
2100;DHT22;1055;48.854;9.302;2022-09-30T18:23:57;12.90;99.90
2100;DHT22;1055;48.854;9.302;2022-09-30T18:26:25;13.10;99.90
2100;DHT22;1055;48.854;9.302;2022-09-30T18:28:53;13.00;99.90
2100;DHT22;1055;48.854;9.302;2022-09-30T18:31:21;13.20;99.90
2100;DHT22;1055;48.854;9.302;2022-09-30T18:33:57;13.30;99.90
2100;DHT22;1055;48.854;9.302;2022-09-30T18:36:24;13.20;99.90
2100;DHT22;1055;48.854;9.302;2022-09-30T18:39:08;12.80;99.90
2100;DHT22;1055;48.854;9.302;2022-09-30T18:41:34;12.60;99.90
2100;DHT22;1055;48.854;9.302;2022-09-30T18:44:00;12.20;99.90
2100;DHT22;1055;48.854;9.302;2022-09-30T18:46:27;11.90;99.90
2100;DHT22;1055;48.854;9.302;2022-09-30T18:48:54;11.70;99.90
2100;DHT22;1055;48.854;9.302;2022-09-30T18:51:21;11.80;99.90
2100;DHT22;1055;48.854;9.302;2022-09-30T18:53:52;11.90;99.90
2100;DHT22;1055;48.854;9.302;2022-09-30T18:56:20;11.50;99.90
2100;DHT22;1055;48.854;9.302;2022-09-30T18:58:48;11.50;99.90
2100;DHT22;1055;48.854;9.302;2022-09-30T19:01:14;11.50;99.90
2100;DHT22;1055;48.854;9.302;2022-09-30T19:03:39;11.90;99.90
2100;DHT22;1055;48.854;9.302;2022-09-30T19:06:06;12.10;99.90
2100;DHT22;1055;48.854;9.302;2022-09-30T19:08:32;12.20;99.90
2100;DHT22;1055;48.854;9.302;2022-09-30T19:10:58;12.30;99.90
2100;DHT22;1055;48.854;9.302;2022-09-30T19:13:24;11.90;99.90
2100;DHT22;1055;48.854;9.302;2022-09-30T19:15:53;12.00;99.90
2100;DHT22;1055;48.854;9.302;2022-09-30T19:18:18;12.10;99.90
2100;DHT22;1055;48.854;9.302;2022-09-30T19:20:45;12.10;99.90
2100;DHT22;1055;48.854;9.302;2022-09-30T19:23:11;12.30;99.90
2100;DHT22;1055;48.854;9.302;2022-09-30T19:25:36;12.40;99.90
2100;DHT22;1055;48.854;9.302;2022-09-30T19:28:06;12.50;99.90
2100;DHT22;1055;48.854;9.302;2022-09-30T19:30:31;12.60;99.90
2100;DHT22;1055;48.854;9.302;2022-09-30T19:32:58;12.40;99.90
2100;DHT22;1055;48.854;9.302;2022-09-30T19:35:25;12.60;99.90
2100;DHT22;1055;48.854;9.302;2022-09-30T19:37:51;12.50;99.90
2100;DHT22;1055;48.854;9.302;2022-09-30T19:40:16;12.10;99.90
2100;DHT22;1055;48.854;9.302;2022-09-30T19:42:42;12.10;99.90
2100;DHT22;1055;48.854;9.302;2022-09-30T19:45:10;11.80;99.90
2100;DHT22;1055;48.854;9.302;2022-09-30T19:47:35;12.00;99.90
2100;DHT22;1055;48.854;9.302;2022-09-30T19:50:01;12.30;99.90
2100;DHT22;1055;48.854;9.302;2022-09-30T19:52:27;12.50;99.90
2100;DHT22;1055;48.854;9.302;2022-09-30T19:54:52;12.40;99.90